createdAt,value
2022-10-05T00:02:57.340Z,8.29
2022-10-05T00:08:13.543Z,8.42
2022-10-05T00:13:20.730Z,8.41
2022-10-05T00:18:26.137Z,8.38
2022-10-05T00:23:33.009Z,8.37
2022-10-05T00:28:37.217Z,8.31
2022-10-05T00:33:42.066Z,8.25
2022-10-05T00:38:46.556Z,8.27
2022-10-05T00:44:28.161Z,8.32
2022-10-05T00:49:51.410Z,8.39
2022-10-05T00:55:04.638Z,8.32
2022-10-05T01:00:13.285Z,8.36
2022-10-05T01:05:33.144Z,8.42
2022-10-05T01:10:41.998Z,8.45
2022-10-05T01:15:55.206Z,8.57
2022-10-05T01:21:08.219Z,8.58
2022-10-05T01:26:32.389Z,8.58
2022-10-05T01:31:43.586Z,8.34
2022-10-05T01:36:57.405Z,8.27
2022-10-05T01:42:08.521Z,8.26
2022-10-05T01:47:23.523Z,8.20
2022-10-05T01:52:29.759Z,8.14
2022-10-05T01:57:43.995Z,8.20
2022-10-05T02:02:51.951Z,8.25
2022-10-05T02:08:00.637Z,8.15
2022-10-05T02:13:10.806Z,8.10
2022-10-05T02:18:23.879Z,8.08
2022-10-05T02:23:33.205Z,8.03
2022-10-05T02:28:41.862Z,8.03
2022-10-05T02:33:46.677Z,7.91
2022-10-05T02:38:57.238Z,7.86
2022-10-05T02:44:06.946Z,7.76
2022-10-05T02:49:22.316Z,7.84
2022-10-05T02:54:38.709Z,7.83
2022-10-05T02:59:47.500Z,7.81
2022-10-05T03:05:00.791Z,7.71
2022-10-05T03:10:13.910Z,7.80
2022-10-05T03:15:37.445Z,7.84
2022-10-05T03:20:50.735Z,7.85
2022-10-05T03:26:08.770Z,7.82
2022-10-05T03:31:21.423Z,7.91
2022-10-05T03:36:34.808Z,7.87
2022-10-05T03:41:44.778Z,7.78
2022-10-05T03:47:09.349Z,7.83
2022-10-05T03:52:17.722Z,7.80
2022-10-05T03:57:24.856Z,7.88
2022-10-05T04:02:32.314Z,7.72
2022-10-05T04:07:44.676Z,7.84
2022-10-05T04:12:53.794Z,7.86
2022-10-05T04:18:03.276Z,7.89
2022-10-05T04:23:18.422Z,7.97
2022-10-05T04:28:32.243Z,7.97
2022-10-05T04:33:35.939Z,7.98
2022-10-05T04:38:49.649Z,7.98
2022-10-05T04:44:10.156Z,8.05
2022-10-05T04:49:34.222Z,8.09
2022-10-05T04:54:51.754Z,8.23
2022-10-05T05:00:07.575Z,8.32
2022-10-05T05:05:33.582Z,8.51
2022-10-05T05:11:00.074Z,8.51
2022-10-05T05:16:10.742Z,8.58
2022-10-05T05:21:26.162Z,8.66
2022-10-05T05:26:42.640Z,8.62
2022-10-05T05:31:51.916Z,8.93
2022-10-05T05:37:02.276Z,9.02
2022-10-05T05:42:24.954Z,9.05
2022-10-05T05:47:36.006Z,9.07
2022-10-05T05:52:44.355Z,9.11
2022-10-05T05:57:55.216Z,9.43
2022-10-05T06:03:04.904Z,9.55
2022-10-05T06:08:18.493Z,9.61
2022-10-05T06:13:27.394Z,9.48
2022-10-05T06:18:34.833Z,9.61
2022-10-05T06:23:45.176Z,9.65
2022-10-05T06:28:58.252Z,9.76
2022-10-05T06:34:17.261Z,9.83
2022-10-05T06:39:41.415Z,10.11
2022-10-05T06:44:54.551Z,10.33
2022-10-05T06:50:06.104Z,10.86
2022-10-05T06:55:19.512Z,11.26
2022-10-05T07:00:26.972Z,11.16
2022-10-05T07:05:46.551Z,11.07
2022-10-05T07:11:06.817Z,10.88
2022-10-05T07:16:21.433Z,10.96
2022-10-05T07:21:40.141Z,11.00
2022-10-05T07:26:48.765Z,11.07
2022-10-05T07:32:03.061Z,11.65
2022-10-05T07:37:29.336Z,12.03
2022-10-05T07:42:52.120Z,12.09
2022-10-05T07:47:59.388Z,12.16
2022-10-05T07:53:12.878Z,11.74
2022-10-05T07:58:23.017Z,11.52
2022-10-05T08:03:35.647Z,11.48
2022-10-05T08:08:48.367Z,12.06
2022-10-05T08:13:56.190Z,11.99
2022-10-05T08:19:08.412Z,11.51
2022-10-05T08:24:20.595Z,11.25
2022-10-05T08:29:31.815Z,11.09
2022-10-05T08:34:46.215Z,10.83
2022-10-05T08:39:58.354Z,11.05
2022-10-05T08:45:35.945Z,11.00
2022-10-05T08:51:06.517Z,11.40
2022-10-05T08:56:32.200Z,11.73
2022-10-05T09:01:55.537Z,12.58
2022-10-05T09:07:17.334Z,12.97
2022-10-05T09:12:54.728Z,12.86
2022-10-05T09:18:36.178Z,12.79
2022-10-05T09:23:43.237Z,12.84
2022-10-05T09:29:05.987Z,12.62
2022-10-05T09:34:44.913Z,12.59
2022-10-05T09:40:42.357Z,12.13
2022-10-05T09:46:12.596Z,12.35
2022-10-05T09:52:01.835Z,12.89
2022-10-05T09:57:49.355Z,13.10
2022-10-05T10:03:24.345Z,13.31
2022-10-05T10:08:42.050Z,13.24
2022-10-05T10:14:07.066Z,13.07
2022-10-05T10:19:21.627Z,13.06
2022-10-05T10:24:45.087Z,12.94
2022-10-05T10:30:19.980Z,12.87
2022-10-05T10:35:35.683Z,12.68
2022-10-05T10:40:44.529Z,12.39
2022-10-05T10:45:58.674Z,12.31
2022-10-05T10:51:20.283Z,12.49
2022-10-05T10:56:55.369Z,13.02
2022-10-05T11:02:20.126Z,13.28
2022-10-05T11:07:50.320Z,12.72
2022-10-05T11:13:24.836Z,12.96
2022-10-05T11:18:43.393Z,12.93
2022-10-05T11:24:38.981Z,12.56
2022-10-05T11:30:27.786Z,12.08
2022-10-05T11:35:58.266Z,11.86
2022-10-05T11:41:29.741Z,11.72
2022-10-05T11:46:42.277Z,11.67
2022-10-05T11:51:56.912Z,11.62
2022-10-05T11:57:05.825Z,12.01
2022-10-05T12:02:44.887Z,12.27
2022-10-05T12:08:07.131Z,12.25
2022-10-05T12:13:21.415Z,12.14
2022-10-05T12:18:47.593Z,11.83
2022-10-05T12:23:56.381Z,11.76
2022-10-05T12:29:06.430Z,11.60
2022-10-05T12:34:22.124Z,11.50
2022-10-05T12:39:38.352Z,11.22
2022-10-05T12:45:09.650Z,11.16
2022-10-05T12:50:29.560Z,11.28
2022-10-05T12:55:42.150Z,11.37
2022-10-05T13:00:52.902Z,11.31
2022-10-05T13:06:08.421Z,11.40
2022-10-05T13:11:18.799Z,11.54
2022-10-05T13:16:35.166Z,11.67
2022-10-05T13:22:00.964Z,11.50
2022-10-05T13:27:14.565Z,11.33
2022-10-05T13:32:22.727Z,11.24
2022-10-05T13:37:35.969Z,11.07
2022-10-05T13:42:45.273Z,11.00
2022-10-05T13:48:05.223Z,10.83
2022-10-05T13:53:19.612Z,10.74
2022-10-05T13:58:34.959Z,10.55
2022-10-05T14:03:39.814Z,10.39
2022-10-05T14:08:53.712Z,10.34
2022-10-05T14:14:13.754Z,10.21
2022-10-05T14:19:23.839Z,10.13
2022-10-05T14:24:43.709Z,9.91
2022-10-05T14:29:56.881Z,9.85
2022-10-05T14:35:16.900Z,9.81
2022-10-05T14:40:32.377Z,9.65
2022-10-05T14:45:36.784Z,9.55
2022-10-05T14:50:55.795Z,9.53
2022-10-05T14:56:29.650Z,9.37
2022-10-05T15:01:37.406Z,9.13
2022-10-05T15:06:46.543Z,9.09
2022-10-05T15:11:56.011Z,9.07
2022-10-05T15:17:03.644Z,9.07
2022-10-05T15:22:29.629Z,9.04
2022-10-05T15:27:44.975Z,9.01
2022-10-05T15:33:04.424Z,9.04
2022-10-05T15:38:19.950Z,9.00
2022-10-05T15:43:26.510Z,8.87
2022-10-05T15:48:43.549Z,8.81
2022-10-05T15:54:16.980Z,8.77
2022-10-05T15:59:33.153Z,8.78
2022-10-05T16:04:48.287Z,8.75
2022-10-05T16:10:03.281Z,8.72
2022-10-05T16:15:22.564Z,8.73
2022-10-05T16:20:38.850Z,8.59
2022-10-05T16:25:55.854Z,8.55
2022-10-05T16:31:08.121Z,8.43
2022-10-05T16:36:24.945Z,8.39
2022-10-05T16:41:44.054Z,8.39
2022-10-05T16:46:54.755Z,8.27
2022-10-05T16:52:01.367Z,8.03
2022-10-05T16:57:14.327Z,8.25
2022-10-05T17:02:34.155Z,8.17
2022-10-05T17:08:06.640Z,7.95
2022-10-05T17:13:23.807Z,7.68
2022-10-05T17:18:50.349Z,7.50
2022-10-05T17:23:56.412Z,7.29
2022-10-05T17:29:10.125Z,7.19
2022-10-05T17:34:31.495Z,7.13
2022-10-05T17:39:51.902Z,7.02
2022-10-05T17:44:55.911Z,7.03
2022-10-05T17:50:19.540Z,7.17
2022-10-05T17:55:45.102Z,7.09
2022-10-05T18:01:17.889Z,6.98
2022-10-05T18:06:49.093Z,6.89
2022-10-05T18:12:27.301Z,6.81
2022-10-05T18:17:46.002Z,6.78
2022-10-05T18:22:53.402Z,6.69
2022-10-05T18:28:13.101Z,6.64
2022-10-05T18:33:49.392Z,6.72
2022-10-05T18:39:02.823Z,6.82
2022-10-05T18:44:24.886Z,6.96
2022-10-05T18:49:48.036Z,7.04
2022-10-05T18:55:03.259Z,7.27
2022-10-05T19:00:16.062Z,7.38
2022-10-05T19:05:47.895Z,7.47
2022-10-05T19:10:57.393Z,7.56
2022-10-05T19:16:17.855Z,7.68
2022-10-05T19:21:31.391Z,7.74
2022-10-05T19:26:53.017Z,7.70
2022-10-05T19:32:03.447Z,7.88
2022-10-05T19:37:13.863Z,7.90
2022-10-05T19:42:33.061Z,7.93
2022-10-05T19:47:49.192Z,8.02
2022-10-05T19:52:58.111Z,8.03
2022-10-05T19:58:04.003Z,8.12
2022-10-05T20:03:12.030Z,8.04
2022-10-05T20:08:19.242Z,7.99
2022-10-05T20:13:24.356Z,7.84
2022-10-05T20:19:06.854Z,7.76
2022-10-05T20:24:12.117Z,7.68
2022-10-05T20:29:17.631Z,7.48
2022-10-05T20:34:21.750Z,7.38
2022-10-05T20:39:25.922Z,7.36
2022-10-05T20:44:31.102Z,7.40
2022-10-05T20:49:35.973Z,7.38
2022-10-05T20:54:39.306Z,7.48
2022-10-05T20:59:45.104Z,7.48
2022-10-05T21:04:48.743Z,7.45
2022-10-05T21:09:52.983Z,7.70
2022-10-05T21:14:59.336Z,7.81
2022-10-05T21:20:03.331Z,7.84
2022-10-05T21:25:09.079Z,7.98
2022-10-05T21:30:15.036Z,7.99
2022-10-05T21:35:19.163Z,7.92
2022-10-05T21:40:24.796Z,7.95
2022-10-05T21:45:31.796Z,8.12
2022-10-05T21:50:36.901Z,8.13
2022-10-05T21:55:43.150Z,8.19
2022-10-05T22:00:48.634Z,8.31
2022-10-05T22:05:53.031Z,8.33
2022-10-05T22:10:58.267Z,8.33
2022-10-05T22:16:03.646Z,8.43
2022-10-05T22:21:08.796Z,8.35
2022-10-05T22:26:15.528Z,8.40
2022-10-05T22:31:21.227Z,8.49
2022-10-05T22:36:25.305Z,8.42
2022-10-05T22:41:29.531Z,8.35
2022-10-05T22:46:35.406Z,8.39
2022-10-05T22:51:39.410Z,8.36
2022-10-05T22:56:43.505Z,8.42
2022-10-05T23:01:49.221Z,8.52
2022-10-05T23:06:53.412Z,8.57
2022-10-05T23:11:58.249Z,8.56
2022-10-05T23:17:03.467Z,8.52
2022-10-05T23:22:07.570Z,8.35
2022-10-05T23:27:11.748Z,8.36
2022-10-05T23:32:16.776Z,8.43
2022-10-05T23:37:23.050Z,8.43
2022-10-05T23:42:26.492Z,8.49
2022-10-05T23:47:31.961Z,8.48
2022-10-05T23:52:35.479Z,8.51
2022-10-05T23:57:40.394Z,8.49
